Time;durP1;ratioP1;P1;durP2;ratioP2;P2;SDS_P1;SDS_P2;PMS_P1;PMS_P2;Temp;Humidity;BMP_temperature;BMP_pressure;BME280_temperature;BME280_humidity;BME280_pressure;Samples;Min_cycle;Max_cycle;Signal;HPM_P1;HPM_P2
2023/08/08 00:00:54;;;;;;;;;;;;;;;17.83;54.83;101380.47;4834365;29;114851;-76
2023/08/08 00:03:21;;;;;;;;;;;;;;;17.81;54.90;101385.91;4832160;29;124478;-77
2023/08/08 00:05:49;;;;;;;;;;;;;;;17.78;54.92;101386.16;4832850;28;124012;-77
2023/08/08 00:08:15;;;;;;;;;;;;;;;17.78;54.96;101390.63;4832464;29;114496;-77
2023/08/08 00:10:42;;;;;;;;;;;;;;;17.77;55.04;101383.56;4832606;29;114057;-77
2023/08/08 00:13:09;;;;;;;;;;;;;;;17.76;54.94;101387.19;4831931;29;124242;-77
2023/08/08 00:15:36;;;;;;;;;;;;;;;17.75;55.00;101390.84;4843318;29;124806;-77
2023/08/08 00:18:04;;;;;;;;;;;;;;;17.75;54.95;101388.16;4834679;29;115374;-77
2023/08/08 00:20:31;;;;;;;;;;;;;;;17.74;54.94;101375.72;4817268;29;115180;-77
2023/08/08 00:22:57;;;;;;;;;;;;;;;17.73;55.04;101376.69;4831467;29;124249;-77
2023/08/08 00:25:24;;;;;;;;;;;;;;;17.73;55.16;101376.69;4833267;29;125305;-77
2023/08/08 00:27:51;;;;;;;;;;;;;;;17.71;55.02;101374.97;4835730;29;114333;-77
2023/08/08 00:30:18;;;;;;;;;;;;;;;17.71;55.13;101369.59;4833848;29;114031;-76
2023/08/08 00:32:45;;;;;;;;;;;;;;;17.71;55.16;101369.59;4827793;29;125521;-77
2023/08/08 00:35:12;;;;;;;;;;;;;;;17.71;55.13;101374.97;4831980;29;124743;-77
2023/08/08 00:37:39;;;;;;;;;;;;;;;17.71;55.17;101369.59;4827009;29;114466;-77
2023/08/08 00:40:06;;;;;;;;;;;;;;;17.74;55.19;101373.03;4849555;29;114127;-76
2023/08/08 00:42:33;;;;;;;;;;;;;;;17.76;55.01;101371.13;4832478;29;124871;-77
2023/08/08 00:45:03;;;;;;;;;;;;;;;17.78;55.18;101374.53;4832503;29;123302;-77
2023/08/08 00:47:31;;;;;;;;;;;;;;;17.79;55.18;101379.81;4819964;29;113806;-77
2023/08/08 00:49:58;;;;;;;;;;;;;;;17.81;55.25;101375.19;4831130;29;112629;-77
2023/08/08 00:52:26;;;;;;;;;;;;;;;17.83;54.96;101373.28;4835458;29;124489;-77
2023/08/08 00:54:55;;;;;;;;;;;;;;;17.86;55.19;101361.53;4844907;29;124082;-76
2023/08/08 00:57:22;;;;;;;;;;;;;;;17.87;55.19;101363.25;4833587;29;115956;-77
2023/08/08 00:59:51;;;;;;;;;;;;;;;17.87;54.95;101357.88;4832111;29;114703;-77
2023/08/08 01:02:18;;;;;;;;;;;;;;;17.88;55.22;101359.63;4828609;29;124741;-76
2023/08/08 01:04:45;;;;;;;;;;;;;;;17.89;55.02;101364.00;4833696;29;125999;-77
2023/08/08 01:07:22;;;;;;;;;;;;;;;17.89;54.95;101361.31;4851383;29;115326;-77
2023/08/08 01:10:01;;;;;;;;;;;;;;;17.90;55.29;101357.69;4833777;29;115013;-77
2023/08/08 01:12:30;;;;;;;;;;;;;;;17.89;55.00;101358.63;4848868;29;125635;-77
2023/08/08 01:14:58;;;;;;;;;;;;;;;17.89;55.17;101355.97;4829379;29;124501;-77
2023/08/08 01:17:25;;;;;;;;;;;;;;;17.89;55.46;101347.91;4830382;29;113534;-77
2023/08/08 01:19:52;;;;;;;;;;;;;;;17.91;55.14;101364.75;4831350;29;114381;-77
2023/08/08 01:22:23;;;;;;;;;;;;;;;17.91;55.15;101354.03;4846444;29;126536;-77
2023/08/08 01:24:51;;;;;;;;;;;;;;;17.91;55.07;101359.38;4835253;29;123464;-77
2023/08/08 01:27:18;;;;;;;;;;;;;;;17.93;55.14;101361.97;4848482;29;114572;-77
2023/08/08 01:29:45;;;;;;;;;;;;;;;17.93;55.29;101356.63;4834873;29;114576;-77
2023/08/08 01:32:13;;;;;;;;;;;;;;;17.94;55.20;101353.84;4830866;29;124222;-77
2023/08/08 01:34:40;;;;;;;;;;;;;;;17.95;55.17;101355.56;4844672;29;125450;-77
2023/08/08 01:37:28;;;;;;;;;;;;;;;17.95;55.21;101344.84;4827173;29;115228;-77
2023/08/08 01:39:57;;;;;;;;;;;;;;;17.96;55.10;101351.91;4826801;29;113833;-77
2023/08/08 01:42:24;;;;;;;;;;;;;;;17.95;55.33;101344.84;4842402;29;124795;-77
2023/08/08 01:44:52;;;;;;;;;;;;;;;17.98;55.32;101349.97;4852189;29;124010;-77
2023/08/08 01:47:20;;;;;;;;;;;;;;;17.99;55.20;101337.44;4832524;29;114647;-77
2023/08/08 01:49:47;;;;;;;;;;;;;;;18.00;55.17;101334.66;4837320;29;114219;-77
2023/08/08 01:52:14;;;;;;;;;;;;;;;18.00;55.15;101331.97;4830708;29;123762;-77
2023/08/08 01:54:42;;;;;;;;;;;;;;;18.00;55.20;101342.69;4835903;29;124626;-77
2023/08/08 01:57:09;;;;;;;;;;;;;;;18.00;55.34;101342.69;4830868;29;116263;-77
2023/08/08 01:59:36;;;;;;;;;;;;;;;18.02;55.16;101346.13;4821155;29;112108;-77
2023/08/08 02:02:03;;;;;;;;;;;;;;;18.02;55.35;101346.13;4832394;29;125869;-77
2023/08/08 02:04:30;;;;;;;;;;;;;;;18.03;55.35;101347.84;4828097;29;124982;-77
2023/08/08 02:06:57;;;;;;;;;;;;;;;18.05;55.21;101350.44;4834415;29;115329;-77
2023/08/08 02:09:25;;;;;;;;;;;;;;;18.07;55.60;101354.72;4834543;29;114158;-77
2023/08/08 02:11:52;;;;;;;;;;;;;;;18.06;55.40;101358.38;4828689;29;126578;-77
2023/08/08 02:14:19;;;;;;;;;;;;;;;18.07;55.28;101338.63;4848522;28;125326;-77
2023/08/08 02:16:46;;;;;;;;;;;;;;;18.08;55.42;101337.69;4836122;29;115762;-77
2023/08/08 02:19:13;;;;;;;;;;;;;;;18.09;55.42;101336.69;4834820;29;115109;-77
2023/08/08 02:21:40;;;;;;;;;;;;;;;18.11;55.26;101338.44;4828896;29;124473;-77
2023/08/08 02:24:07;;;;;;;;;;;;;;;18.11;55.35;101328.56;4850784;29;123950;-77
2023/08/08 02:26:34;;;;;;;;;;;;;;;18.11;55.40;101316.97;4834890;29;115099;-77
2023/08/08 02:29:05;;;;;;;;;;;;;;;18.11;55.35;101322.34;4836137;29;111798;-77
2023/08/08 02:31:32;;;;;;;;;;;;;;;18.09;55.18;101309.03;4834854;29;125140;-77
2023/08/08 02:33:59;;;;;;;;;;;;;;;18.06;55.38;101299.41;4834240;29;126112;-77
2023/08/08 02:36:26;;;;;;;;;;;;;;;18.05;55.30;101303.03;4834697;29;114716;-77
2023/08/08 02:38:53;;;;;;;;;;;;;;;18.02;55.25;101297.88;4834120;29;114540;-77
2023/08/08 02:41:20;;;;;;;;;;;;;;;18.02;55.43;101313.09;4837593;29;124652;-77
2023/08/08 02:43:48;;;;;;;;;;;;;;;17.99;55.41;101303.47;4834768;29;125015;-77
2023/08/08 02:46:15;;;;;;;;;;;;;;;17.97;55.45;101310.75;4834695;29;113493;-77
2023/08/08 02:48:42;;;;;;;;;;;;;;;17.95;55.47;101307.31;4850645;29;114851;-78
2023/08/08 02:51:10;;;;;;;;;;;;;;;17.93;55.34;101308.38;4834081;29;125579;-77
2023/08/08 02:53:37;;;;;;;;;;;;;;;17.91;55.41;101311.16;4830935;29;125270;-77
2023/08/08 02:56:04;;;;;;;;;;;;;;;17.89;55.29;101307.72;4847584;28;115352;-77
2023/08/08 02:58:36;;;;;;;;;;;;;;;17.87;55.43;101304.28;4812485;29;114835;-77
2023/08/08 03:01:03;;;;;;;;;;;;;;;17.85;55.53;101308.91;4835492;29;123638;-77
2023/08/08 03:03:30;;;;;;;;;;;;;;;17.85;55.32;101306.22;4834881;29;124768;-77
2023/08/08 03:05:57;;;;;;;;;;;;;;;17.84;55.53;101304.50;4848711;29;115972;-77
2023/08/08 03:08:27;;;;;;;;;;;;;;;17.83;55.40;101286.69;4841903;29;115648;-77
2023/08/08 03:10:55;;;;;;;;;;;;;;;17.83;55.54;101286.69;4824284;29;124762;-77
2023/08/08 03:13:22;;;;;;;;;;;;;;;17.82;55.64;101295.66;4829351;29;126342;-77
2023/08/08 03:15:50;;;;;;;;;;;;;;;17.82;55.55;101290.31;4832972;29;116160;-77
2023/08/08 03:18:17;;;;;;;;;;;;;;;17.82;55.41;101293.88;4850660;29;113163;-77
2023/08/08 03:20:44;;;;;;;;;;;;;;;17.82;55.59;101285.84;4833519;29;125854;-77
2023/08/08 03:23:11;;;;;;;;;;;;;;;17.82;55.61;101284.94;4833201;29;124990;-77
2023/08/08 03:25:40;;;;;;;;;;;;;;;17.82;55.55;101284.94;4849604;28;115544;-77
2023/08/08 03:28:06;;;;;;;;;;;;;;;17.83;55.57;101286.69;4834081;29;114928;-77
2023/08/08 03:30:36;;;;;;;;;;;;;;;17.82;55.60;101290.31;4847397;28;125325;-77
2023/08/08 03:33:04;;;;;;;;;;;;;;;17.82;55.69;101291.19;4833491;29;125544;-77
2023/08/08 03:35:31;;;;;;;;;;;;;;;17.82;55.76;101306.38;4835950;29;115007;-77
2023/08/08 03:37:58;;;;;;;;;;;;;;;17.81;55.76;101299.31;4836038;29;114315;-77
2023/08/08 03:40:25;;;;;;;;;;;;;;;17.79;55.80;101295.91;4824170;29;124083;-77
2023/08/08 03:42:52;;;;;;;;;;;;;;;17.78;55.91;101296.84;4834773;29;124750;-77
2023/08/08 03:45:19;;;;;;;;;;;;;;;17.77;55.93;101292.47;4833216;29;115449;-77
2023/08/08 03:48:11;;;;;;;;;;;;;;;17.76;55.62;101285.38;4834383;29;114676;-77
2023/08/08 03:50:39;;;;;;;;;;;;;;;17.75;55.82;101284.53;4831304;29;125271;-77
2023/08/08 03:53:07;;;;;;;;;;;;;;;17.73;55.78;101296.31;4848319;29;124957;-77
2023/08/08 03:55:34;;;;;;;;;;;;;;;17.71;55.76;101291.91;4831237;29;116156;-77
2023/08/08 03:58:02;;;;;;;;;;;;;;;17.68;55.76;101289.44;4833607;29;115652;-77
2023/08/08 04:00:29;;;;;;;;;;;;;;;17.66;55.95;101291.34;4844440;29;124096;-77
2023/08/08 04:02:56;;;;;;;;;;;;;;;17.66;55.82;101285.16;4834833;29;123655;-77
2023/08/08 04:05:23;;;;;;;;;;;;;;;17.66;55.82;101285.16;4834224;29;117495;-77
2023/08/08 04:07:51;;;;;;;;;;;;;;;17.64;55.81;101282.56;4834534;29;113519;-77
2023/08/08 04:10:18;;;;;;;;;;;;;;;17.63;55.76;101270.16;4831338;29;124914;-77
2023/08/08 04:12:45;;;;;;;;;;;;;;;17.62;55.89;101263.06;4834199;29;125686;-77
2023/08/08 04:15:12;;;;;;;;;;;;;;;17.63;55.88;101264.81;4832742;29;115295;-76
2023/08/08 04:17:39;;;;;;;;;;;;;;;17.62;55.82;101263.06;4834966;29;115022;-75
2023/08/08 04:20:06;;;;;;;;;;;;;;;17.63;55.87;101264.81;4833448;29;125088;-76
2023/08/08 04:22:33;;;;;;;;;;;;;;;17.62;55.88;101263.06;4834236;29;125285;-76
2023/08/08 04:25:00;;;;;;;;;;;;;;;17.61;55.89;101272.09;4848400;29;115096;-76
2023/08/08 04:27:27;;;;;;;;;;;;;;;17.60;55.88;101275.72;4850472;29;114460;-76
2023/08/08 04:29:54;;;;;;;;;;;;;;;17.59;55.84;101273.97;4838247;29;125604;-76
2023/08/08 04:32:21;;;;;;;;;;;;;;;17.57;55.88;101275.06;4829934;29;123734;-75
2023/08/08 04:34:48;;;;;;;;;;;;;;;17.55;55.93;101272.47;4835465;29;114489;-76
2023/08/08 04:37:15;;;;;;;;;;;;;;;17.53;55.91;101274.41;4814365;29;114327;-75
2023/08/08 04:39:42;;;;;;;;;;;;;;;17.52;56.19;101272.72;4829281;29;123441;-76
2023/08/08 04:42:09;;;;;;;;;;;;;;;17.50;55.95;101277.31;4824639;29;124660;-76
2023/08/08 04:44:36;;;;;;;;;;;;;;;17.49;55.95;101275.56;4826626;29;115781;-75
2023/08/08 04:47:03;;;;;;;;;;;;;;;17.46;56.29;101271.31;4827078;29;116383;-76
2023/08/08 04:49:30;;;;;;;;;;;;;;;17.45;56.00;101271.41;4846126;29;125090;-76
2023/08/08 04:51:57;;;;;;;;;;;;;;;17.45;56.08;101276.75;4836490;29;123876;-75
2023/08/08 04:54:24;;;;;;;;;;;;;;;17.45;56.05;101282.09;4839697;29;114943;-76
2023/08/08 04:56:51;;;;;;;;;;;;;;;17.44;56.03;101275.03;4814490;29;112848;-75
2023/08/08 04:59:18;;;;;;;;;;;;;;;17.44;56.04;101275.03;4831922;29;124305;-75
2023/08/08 05:01:45;;;;;;;;;;;;;;;17.43;56.11;101279.53;4825073;29;124556;-76
2023/08/08 05:04:12;;;;;;;;;;;;;;;17.43;56.17;101273.31;4828563;29;114494;-76
2023/08/08 05:06:39;;;;;;;;;;;;;;;17.42;56.31;101271.59;4825804;29;114706;-75
2023/08/08 05:09:09;;;;;;;;;;;;;;;17.43;56.17;101273.31;4832878;29;124193;-75
2023/08/08 05:11:36;;;;;;;;;;;;;;;17.44;56.26;101275.03;4821590;29;125472;-76
2023/08/08 05:14:03;;;;;;;;;;;;;;;17.45;56.25;101276.75;4836144;29;115379;-76
2023/08/08 05:16:30;;;;;;;;;;;;;;;17.45;56.18;101276.75;4836221;29;115104;-78
2023/08/08 05:18:57;;;;;;;;;;;;;;;17.47;56.23;101281.03;4840213;29;124918;-76
2023/08/08 05:21:24;;;;;;;;;;;;;;;17.48;56.35;101271.19;4831691;29;126183;-77
2023/08/08 05:23:51;;;;;;;;;;;;;;;17.49;56.40;101272.91;4834124;29;116137;-76
2023/08/08 05:26:17;;;;;;;;;;;;;;;17.50;56.38;101264.78;4836212;29;113651;-77
2023/08/08 05:28:45;;;;;;;;;;;;;;;17.52;56.34;101270.03;4835916;29;123446;-77
2023/08/08 05:31:11;;;;;;;;;;;;;;;17.55;56.50;101261.75;4834532;29;124260;-77
2023/08/08 05:33:38;;;;;;;;;;;;;;;17.56;56.56;101268.84;4832964;29;116023;-77
2023/08/08 05:36:05;;;;;;;;;;;;;;;17.59;56.45;101273.97;4835554;29;114259;-77
2023/08/08 05:38:32;;;;;;;;;;;;;;;17.62;56.56;101279.13;4832741;29;124996;-77
2023/08/08 05:40:59;;;;;;;;;;;;;;;17.64;56.52;101277.22;4834416;29;123867;-77
2023/08/08 05:43:27;;;;;;;;;;;;;;;17.66;56.51;101275.28;4835023;29;116853;-77
2023/08/08 05:45:56;;;;;;;;;;;;;;;17.68;56.46;101273.34;4842674;29;113522;-77
2023/08/08 05:48:23;;;;;;;;;;;;;;;17.70;56.44;101276.78;4833422;29;123404;-77
2023/08/08 05:50:50;;;;;;;;;;;;;;;17.72;56.40;101276.69;4832406;29;124872;-77
2023/08/08 05:53:17;;;;;;;;;;;;;;;17.75;56.56;101281.00;4835731;29;115274;-79
2023/08/08 05:55:44;;;;;;;;;;;;;;;17.77;56.64;101271.03;4838480;29;113891;-78
2023/08/08 05:58:11;;;;;;;;;;;;;;;17.80;56.70;101276.16;4847243;29;124174;-79
2023/08/08 06:00:40;;;;;;;;;;;;;;;17.83;56.72;101275.97;4842326;29;124460;-79
2023/08/08 06:03:15;;;;;;;;;;;;;;;17.86;56.69;101271.28;4843558;29;112848;-78
2023/08/08 06:05:42;;;;;;;;;;;;;;;17.90;56.49;101288.00;4831948;29;113264;-79
2023/08/08 06:08:12;;;;;;;;;;;;;;;17.93;56.69;101287.78;4850905;29;122685;-78
2023/08/08 06:10:39;;;;;;;;;;;;;;;17.98;56.53;101290.16;4851746;28;123438;-79
2023/08/08 06:13:05;;;;;;;;;;;;;;;18.00;56.72;101294.44;4838824;29;114059;-79
2023/08/08 06:15:33;;;;;;;;;;;;;;;18.04;56.73;101285.22;4852970;29;113949;-79
2023/08/08 06:18:00;;;;;;;;;;;;;;;18.09;56.92;101288.44;4833769;29;125719;-78
2023/08/08 06:20:28;;;;;;;;;;;;;;;18.16;56.83;101282.66;4831413;29;124977;-79
2023/08/08 06:22:55;;;;;;;;;;;;;;;18.22;56.69;101291.13;4834709;29;115845;-79
2023/08/08 06:25:22;;;;;;;;;;;;;;;18.29;56.90;101294.25;4837289;29;114349;-79
2023/08/08 06:27:49;;;;;;;;;;;;;;;18.35;56.64;101293.81;4838926;29;126447;-79
2023/08/08 06:30:16;;;;;;;;;;;;;;;18.41;56.74;101282.66;4838737;29;124255;-79
2023/08/08 06:32:43;;;;;;;;;;;;;;;18.47;56.77;101298.28;4834433;29;113633;-78
2023/08/08 06:35:10;;;;;;;;;;;;;;;18.54;56.72;101293.34;4832444;29;113642;-79
2023/08/08 06:37:39;;;;;;;;;;;;;;;18.59;56.83;101301.06;4837961;29;124676;-78
2023/08/08 06:40:07;;;;;;;;;;;;;;;18.67;56.77;101304.06;4829713;29;124262;-79
2023/08/08 06:42:34;;;;;;;;;;;;;;;18.76;56.83;101305.22;4828715;29;113797;-79
2023/08/08 06:45:01;;;;;;;;;;;;;;;18.83;56.79;101302.00;4826709;29;112333;-79
2023/08/08 06:47:28;;;;;;;;;;;;;;;18.92;56.66;101297.81;4848036;28;124046;-79
2023/08/08 06:49:55;;;;;;;;;;;;;;;19.02;56.54;101304.25;4832519;29;123967;-79
2023/08/08 06:52:22;;;;;;;;;;;;;;;19.10;56.64;101306.34;4832664;29;115727;-79
2023/08/08 06:54:49;;;;;;;;;;;;;;;19.19;56.63;101311.06;4832974;29;114678;-79
2023/08/08 06:57:16;;;;;;;;;;;;;;;19.30;56.70;101312.06;4850202;29;123631;-79
2023/08/08 06:59:43;;;;;;;;;;;;;;;19.39;56.72;101308.69;4835155;29;124848;-79
2023/08/08 07:02:11;;;;;;;;;;;;;;;19.47;56.60;101306.28;4834631;29;114606;-79
2023/08/08 07:04:38;;;;;;;;;;;;;;;19.53;56.74;101308.50;4823207;29;114383;-78
2023/08/08 07:07:05;;;;;;;;;;;;;;;19.62;56.72;101297.06;4822440;29;125745;-79
2023/08/08 07:09:32;;;;;;;;;;;;;;;19.70;56.67;101309.06;4832916;29;124250;-79
2023/08/08 07:11:59;;;;;;;;;;;;;;;19.80;56.98;101304.75;4835973;29;116557;-79
2023/08/08 07:14:27;;;;;;;;;;;;;;;19.91;56.78;101304.78;4840054;29;116107;-79
2023/08/08 07:16:54;;;;;;;;;;;;;;;20.02;56.69;101299.41;4830595;29;125801;-79
2023/08/08 07:19:21;;;;;;;;;;;;;;;20.11;56.74;101302.34;4832200;29;124451;-79
2023/08/08 07:21:48;;;;;;;;;;;;;;;20.19;56.61;101305.28;4839617;29;112337;-79
2023/08/08 07:24:16;;;;;;;;;;;;;;;20.30;56.70;101301.75;4840307;29;114002;-79
2023/08/08 07:26:43;;;;;;;;;;;;;;;20.38;56.61;101300.19;4817373;29;124795;-79
2023/08/08 07:29:10;;;;;;;;;;;;;;;20.48;56.33;101296.78;4851727;29;124799;-79
2023/08/08 07:31:37;;;;;;;;;;;;;;;20.57;56.60;101304.13;4838621;29;114714;-79
2023/08/08 07:34:04;;;;;;;;;;;;;;;20.63;56.40;101303.66;4840090;29;111658;-79
2023/08/08 07:36:30;;;;;;;;;;;;;;;20.71;56.35;101303.88;4832683;29;124441;-79
2023/08/08 07:38:59;;;;;;;;;;;;;;;20.76;56.39;101298.97;4839230;29;124281;-79
2023/08/08 07:41:27;;;;;;;;;;;;;;;20.80;56.27;101295.06;4834437;29;113967;-78
2023/08/08 07:43:54;;;;;;;;;;;;;;;20.83;56.10;101299.31;4839031;29;114263;-79
2023/08/08 07:46:20;;;;;;;;;;;;;;;20.86;56.06;101295.53;4836535;29;123550;-79
2023/08/08 07:48:47;;;;;;;;;;;;;;;20.86;55.98;101298.25;4838770;29;124719;-79
2023/08/08 07:51:15;;;;;;;;;;;;;;;20.87;56.03;101291.84;4833172;29;114809;-79
2023/08/08 07:53:42;;;;;;;;;;;;;;;20.90;55.98;101294.31;4855189;29;113989;-79
2023/08/08 07:56:12;;;;;;;;;;;;;;;20.98;56.22;101291.84;4832077;29;124366;-79
2023/08/08 07:58:39;;;;;;;;;;;;;;;21.10;56.41;101296.22;4835258;29;123697;-79
2023/08/08 08:01:06;;;;;;;;;;;;;;;21.22;56.41;101293.50;4835356;29;114979;-81
2023/08/08 08:03:34;;;;;;;;;;;;;;;21.32;56.31;101289.91;4839013;29;114338;-79
2023/08/08 08:06:02;;;;;;;;;;;;;;;21.39;56.09;101290.25;4825795;29;125270;-79
2023/08/08 08:08:28;;;;;;;;;;;;;;;21.43;56.07;101294.38;4829888;29;124916;-79
2023/08/08 08:10:55;;;;;;;;;;;;;;;21.50;56.05;101301.00;4846339;29;113195;-78
2023/08/08 08:13:22;;;;;;;;;;;;;;;21.58;56.00;101290.44;4839418;29;113203;-78
2023/08/08 08:15:49;;;;;;;;;;;;;;;21.66;56.07;101288.94;4837819;29;123307;-79
2023/08/08 08:18:17;;;;;;;;;;;;;;;21.72;56.03;101283.03;4840902;29;124117;-78
2023/08/08 08:20:46;;;;;;;;;;;;;;;21.82;55.99;101286.63;4841531;29;114145;-79
2023/08/08 08:23:13;;;;;;;;;;;;;;;21.90;55.84;101288.69;4837409;29;114758;-79
2023/08/08 08:25:40;;;;;;;;;;;;;;;21.92;55.75;101287.53;4846421;29;125820;-79
2023/08/08 08:28:07;;;;;;;;;;;;;;;21.94;55.45;101285.59;4840751;29;124077;-79
2023/08/08 08:30:36;;;;;;;;;;;;;;;21.94;55.43;101285.59;4835195;29;114491;-79
2023/08/08 08:33:04;;;;;;;;;;;;;;;21.97;55.47;101285.31;4852823;29;112001;-79
2023/08/08 08:35:31;;;;;;;;;;;;;;;22.03;55.66;101288.47;4845172;29;124850;-79
2023/08/08 08:37:59;;;;;;;;;;;;;;;22.09;55.53;101282.53;4838296;29;122790;-78
2023/08/08 08:40:27;;;;;;;;;;;;;;;22.15;55.45;101287.41;4847471;29;114120;-79
2023/08/08 08:42:54;;;;;;;;;;;;;;;22.17;55.37;101285.44;4850078;29;113142;-79
2023/08/08 08:45:22;;;;;;;;;;;;;;;22.21;55.26;101281.50;4868304;29;123645;-79
2023/08/08 08:47:50;;;;;;;;;;;;;;;22.23;55.19;101279.50;4835828;29;125647;-79
2023/08/08 08:50:17;;;;;;;;;;;;;;;22.23;55.20;101278.66;4852768;29;114755;-79
2023/08/08 08:52:45;;;;;;;;;;;;;;;22.28;55.27;101282.69;4852618;29;115082;-79
2023/08/08 08:55:12;;;;;;;;;;;;;;;22.38;55.40;101276.47;4851401;29;124029;-79
2023/08/08 08:57:39;;;;;;;;;;;;;;;22.46;55.43;101273.97;4867888;29;122101;-79
2023/08/08 09:00:06;;;;;;;;;;;;;;;22.47;55.14;101281.94;4853443;29;113751;-79
2023/08/08 09:02:33;;;;;;;;;;;;;;;22.42;54.99;101286.03;4853973;29;114727;-79
2023/08/08 09:05:02;;;;;;;;;;;;;;;22.33;54.71;101285.81;4832260;29;123902;-79
2023/08/08 09:07:29;;;;;;;;;;;;;;;22.21;54.58;101286.88;4838477;29;124337;-79
2023/08/08 09:09:56;;;;;;;;;;;;;;;22.09;54.53;101287.94;4833335;29;115540;-79
2023/08/08 09:12:24;;;;;;;;;;;;;;;21.96;54.47;101294.41;4838845;29;113577;-79
2023/08/08 09:14:56;;;;;;;;;;;;;;;21.84;54.42;101300.84;4834932;29;125608;-79
2023/08/08 09:17:27;;;;;;;;;;;;;;;21.72;54.61;101291.13;4837625;29;123492;-79
2023/08/08 09:20:13;;;;;;;;;;;;;;;21.64;54.77;101290.91;4836174;29;114392;-78
2023/08/08 09:22:40;;;;;;;;;;;;;;;21.66;54.86;101287.09;4838103;29;114376;-78
2023/08/08 09:25:08;;;;;;;;;;;;;;;21.74;55.14;101272.97;4832052;29;124611;-79
2023/08/08 09:27:35;;;;;;;;;;;;;;;21.84;55.27;101273.03;4838414;29;123571;-78
2023/08/08 09:30:02;;;;;;;;;;;;;;;21.92;55.15;101275.91;4839654;29;114659;-78
2023/08/08 09:32:32;;;;;;;;;;;;;;;21.95;55.10;101281.91;4850650;29;112743;-77
2023/08/08 09:34:59;;;;;;;;;;;;;;;21.99;55.03;101287.03;4859970;28;125995;-78
2023/08/08 09:37:27;;;;;;;;;;;;;;;22.05;55.03;101291.91;4845652;29;124681;-79
2023/08/08 09:39:58;;;;;;;;;;;;;;;22.11;54.94;101286.84;4840577;29;115783;-78
2023/08/08 09:42:29;;;;;;;;;;;;;;;22.19;54.86;101290.69;4840231;29;115495;-78
2023/08/08 09:44:56;;;;;;;;;;;;;;;22.26;54.91;101284.66;4851659;29;124181;-78
2023/08/08 09:47:24;;;;;;;;;;;;;;;22.31;54.77;101276.16;4854224;29;124899;-79
2023/08/08 09:49:51;;;;;;;;;;;;;;;22.34;54.62;101282.16;4850983;29;113714;-79
2023/08/08 09:52:18;;;;;;;;;;;;;;;22.32;54.37;101289.53;4869075;29;114767;-79
2023/08/08 09:54:46;;;;;;;;;;;;;;;22.23;54.23;101298.41;4851745;29;124928;-77
2023/08/08 09:57:13;;;;;;;;;;;;;;;22.13;54.09;101294.78;4830268;29;124048;-77
2023/08/08 09:59:41;;;;;;;;;;;;;;;22.04;54.17;101296.44;4848775;29;113942;-78
2023/08/08 10:02:13;;;;;;;;;;;;;;;22.02;54.25;101294.84;4845055;29;113306;-78
2023/08/08 10:04:40;;;;;;;;;;;;;;;22.07;54.64;101300.69;4841922;29;124534;-79
2023/08/08 10:07:07;;;;;;;;;;;;;;;22.15;54.60;101298.19;4845196;29;123507;-79
2023/08/08 10:09:34;;;;;;;;;;;;;;;22.24;54.79;101302.78;4832025;29;115055;-80
2023/08/08 10:12:01;;;;;;;;;;;;;;;22.37;54.86;101299.06;4857746;29;111519;-77
2023/08/08 10:14:30;;;;;;;;;;;;;;;22.47;54.57;101308.03;4839247;29;124328;-77
2023/08/08 10:16:58;;;;;;;;;;;;;;;22.55;54.57;101308.25;4839325;29;122527;-78
2023/08/08 10:19:25;;;;;;;;;;;;;;;22.63;54.60;101308.41;4845440;29;114191;-80
2023/08/08 10:21:59;;;;;;;;;;;;;;;22.69;54.55;101301.59;4846994;29;113308;-80
2023/08/08 10:24:32;;;;;;;;;;;;;;;22.79;54.39;101296.22;4836038;29;123577;-77
2023/08/08 10:27:01;;;;;;;;;;;;;;;22.95;54.70;101291.16;4837910;29;124992;-77
2023/08/08 10:29:29;;;;;;;;;;;;;;;23.07;54.45;101290.06;4835858;29;115376;-78
2023/08/08 10:32:01;;;;;;;;;;;;;;;23.18;54.57;101304.44;4837377;29;115301;-78
2023/08/08 10:34:46;;;;;;;;;;;;;;;23.27;54.27;101295.50;4834632;29;125431;-77
2023/08/08 10:37:15;;;;;;;;;;;;;;;23.33;54.32;101300.34;4834904;29;124574;-78
2023/08/08 10:39:57;;;;;;;;;;;;;;;23.41;54.10;101297.78;4830204;29;115023;-78
2023/08/08 10:42:25;;;;;;;;;;;;;;;23.46;54.07;101300.91;4834112;29;114440;-79
2023/08/08 10:44:54;;;;;;;;;;;;;;;23.46;53.83;101300.91;4831455;29;125362;-78
2023/08/08 10:47:33;;;;;;;;;;;;;;;23.47;53.76;101302.63;4817217;29;122141;-78
2023/08/08 10:50:06;;;;;;;;;;;;;;;23.52;53.92;101303.03;4842679;29;113992;-79
2023/08/08 10:52:37;;;;;;;;;;;;;;;23.65;53.83;101299.22;4835349;29;112891;-78
2023/08/08 10:55:04;;;;;;;;;;;;;;;23.70;53.66;101295.06;4832728;29;124383;-77
2023/08/08 10:57:31;;;;;;;;;;;;;;;23.74;53.47;101294.78;4833055;29;126910;-78
2023/08/08 11:00:16;;;;;;;;;;;;;;;23.75;53.49;101293.78;4836488;29;115300;-78
2023/08/08 11:02:43;;;;;;;;;;;;;;;23.75;53.43;101294.63;4834605;29;113955;-78
2023/08/08 11:05:10;;;;;;;;;;;;;;;23.74;53.27;101298.34;4834055;29;124328;-78
2023/08/08 11:07:38;;;;;;;;;;;;;;;23.71;53.29;101296.78;4828156;29;124133;-78
2023/08/08 11:10:05;;;;;;;;;;;;;;;23.72;53.25;101297.63;4831939;29;114151;-78
2023/08/08 11:12:32;;;;;;;;;;;;;;;23.72;53.09;101286.81;4833556;29;114796;-77
2023/08/08 11:14:59;;;;;;;;;;;;;;;23.69;53.02;101289.81;4834191;29;124278;-78
2023/08/08 11:17:26;;;;;;;;;;;;;;;23.67;52.97;101286.38;4837436;29;125461;-78
2023/08/08 11:19:54;;;;;;;;;;;;;;;23.68;53.13;101288.13;4831468;29;115862;-77
2023/08/08 11:22:22;;;;;;;;;;;;;;;23.70;53.05;101296.94;4833006;29;115085;-78
2023/08/08 11:24:50;;;;;;;;;;;;;;;23.72;53.13;101284.13;4821198;29;123837;-78
2023/08/08 11:27:17;;;;;;;;;;;;;;;23.79;53.21;101285.28;4816633;29;124815;-79
2023/08/08 11:30:04;;;;;;;;;;;;;;;23.90;53.60;101274.31;4831578;29;115129;-78
2023/08/08 11:32:34;;;;;;;;;;;;;;;24.03;53.72;101271.25;4829319;29;114735;-78
2023/08/08 11:35:02;;;;;;;;;;;;;;;24.16;53.30;101265.53;4833722;29;126481;-78
2023/08/08 11:37:29;;;;;;;;;;;;;;;24.28;53.56;101275.19;4852535;29;124696;-78
2023/08/08 11:39:56;;;;;;;;;;;;;;;24.36;53.25;101271.72;4840441;29;112645;-78
2023/08/08 11:42:22;;;;;;;;;;;;;;;24.39;53.10;101270.56;4833959;29;115490;-78
2023/08/08 11:44:50;;;;;;;;;;;;;;;24.35;52.89;101274.59;4836028;29;124145;-79
2023/08/08 11:47:17;;;;;;;;;;;;;;;24.25;52.74;101270.06;4833778;29;124060;-78
2023/08/08 11:49:45;;;;;;;;;;;;;;;24.14;52.63;101272.94;4837223;29;112872;-78
2023/08/08 11:52:12;;;;;;;;;;;;;;;24.01;52.33;101277.81;4836263;29;114342;-77
2023/08/08 11:54:39;;;;;;;;;;;;;;;23.84;52.43;101282.13;4834156;29;125084;-78
2023/08/08 11:57:06;;;;;;;;;;;;;;;23.70;52.51;101275.28;4849044;29;124909;-78
2023/08/08 11:59:33;;;;;;;;;;;;;;;23.59;52.55;101283.56;4839141;29;114903;-79
2023/08/08 12:02:00;;;;;;;;;;;;;;;23.50;52.52;101278.00;4830313;29;114904;-78
2023/08/08 12:04:27;;;;;;;;;;;;;;;23.45;52.48;101277.59;4849132;29;124761;-77
2023/08/08 12:07:05;;;;;;;;;;;;;;;23.46;52.90;101279.28;4817145;29;97286;-78
2023/08/08 12:09:32;;;;;;;;;;;;;;;23.57;53.13;101274.75;4833190;29;115902;-78
2023/08/08 12:12:00;;;;;;;;;;;;;;;23.63;53.11;101274.16;4848185;29;116646;-78
2023/08/08 12:14:28;;;;;;;;;;;;;;;23.65;52.91;101277.56;4831607;29;124336;-78
2023/08/08 12:16:55;;;;;;;;;;;;;;;23.66;52.64;101268.47;4835040;29;124050;-78
2023/08/08 12:19:23;;;;;;;;;;;;;;;23.62;52.48;101272.44;4830424;29;114295;-78
2023/08/08 12:21:53;;;;;;;;;;;;;;;23.59;52.47;101270.03;4832004;29;115013;-78
2023/08/08 12:24:20;;;;;;;;;;;;;;;23.61;52.83;101265.34;4833784;29;125059;-78
2023/08/08 12:26:47;;;;;;;;;;;;;;;23.64;52.80;101275.84;4836167;29;124588;-77
2023/08/08 12:29:14;;;;;;;;;;;;;;;23.65;52.54;101274.88;4838026;29;113959;-77
2023/08/08 12:31:41;;;;;;;;;;;;;;;23.70;52.64;101275.28;4835869;29;113502;-78